Santa Fe, Spain

7:07 AM CET on February 11, 2016 (GMT +0100)
Granada | | Change Station
CLOSE
Current Station
Airport
Location: Granada,
Elevation: 1870 ft
Nearby Weather Stations

Elev 1870 ft 37.19 °N, 3.79 °W | Updated 7 minutes ago

Rain
Rain
55 °F
Feels Like 55 °F
N
1
Wind Variable Wind from Variable

Today
High -- | Low -- °F
--% Chance of Precip.
Yesterday
High -- | Low -- °F
Precip. -- in
Pressure 30.09 in
Visibility 5.0 miles
Clouds Few 1500 ft
Scattered Clouds 3000 ft
Mostly Cloudy 4000 ft
Dew Point 54 °F
Humidity 94%
Rainfall 0.00 in
Snow Depth Not available.
8:09 AM 6:50 PM
Waxing Crescent, 9% visible
METAR LEGR 110600Z VRB01KT 8000 RA FEW015 SCT030 BKN040 13/12 Q1019
Pressure 30.09 in
Visibility 5.0 miles
Clouds Few 1500 ft
Scattered Clouds 3000 ft
Mostly Cloudy 4000 ft
Dew Point 54 °F
Humidity 94%
Rainfall 0.00 in
Snow Depth Not available.
8:09 AM 6:50 PM
Waxing Crescent, 9% visible
METAR LEGR 110600Z VRB01KT 8000 RA FEW015 SCT030 BKN040 13/12 Q1019

10-Day Weather Forecast

Almanac

Astronomy

Feb. 11, 2016 Rise Set
Actual Time
Civil Twilight
Nautical Twilight
Astronomical Twilight
Moon
Length of Visible Light
Length of Day
Tomorrow will be .
, % of the Moon is Illuminated

Today's Extremes

Country Highs Country Lows

Community

WunderPhotos

Upload Photos

1,892,028 photos uploaded!

WunderBlog® & News

Nearby

Air Quality

  Air Quality AQ Index Pollutant
Not available.

Snow Depth

Station Depth Elevation

Earthquake Activity

City Distance Mag. Time & Date
Minimum magnitude displayed is 2.5.

Coastal Water Temperatures

Place Temperature

Stations

Nearby Weather Stations

Station Location Temp. Windchill Dew Point Humidity Wind Precip. Elev Updated Type